This is the latest recevied weather packets stored in our database for station/object KP4FJC. If no packets are shown the sender has not sent any weather packets the latest 10 day(s).
| Time | Temp. | Humidity | Pressure | Rain* | Wind** | Luminosity | Snow |
|---|---|---|---|---|---|---|---|
| 1777736949 | 31.11° C | 62% | 1018.1 hPa | 0 mm | - | 995 W/m² | - |
| 1777736044 | 30.56° C | 65% | 1018 hPa | 0 mm | - | 913 W/m² | - |
| 1777735741 | 31.67° C | 64% | 1018.1 hPa | 0 mm | - | 1101 W/m² | - |
| 1777735438 | 31.11° C | 65% | 1018.1 hPa | 0 mm | - | 305 W/m² | - |
| 1777735136 | 31.11° C | 65% | 1018.1 hPa | 0 mm | - | 798 W/m² | - |
| 1777734832 | 31.11° C | 64% | 1018.3 hPa | 0 mm | - | 981 W/m² | - |
| 1777734530 | 31.67° C | 64% | 1018.4 hPa | 0 mm | - | 1026 W/m² | - |
| 1777734226 | 30° C | 68% | 1018.5 hPa | 0 mm | - | 1045 W/m² | - |
| 1777733922 | 30.56° C | 67% | 1018.6 hPa | 0 mm | - | 247 W/m² | - |
| 1777733619 | 31.11° C | 67% | 1018.5 hPa | 0 mm | - | 287 W/m² | - |
| 1777733315 | 30.56° C | 67% | 1018.5 hPa | 0 mm | - | 889 W/m² | - |
| 1777733012 | 31.11° C | 66% | 1018.7 hPa | 0 mm | - | 861 W/m² | - |
| 1777732708 | 30.56° C | 67% | 1018.5 hPa | 0 mm | - | 860 W/m² | - |
| 1777732406 | 30° C | 70% | 1018.7 hPa | 0 mm | - | 939 W/m² | - |
| 1777732103 | 29.44° C | 72% | 1018.8 hPa | 0 mm | - | 429 W/m² | - |
| 1777731800 | 30° C | 71% | 1018.7 hPa | 0 mm | - | 246 W/m² | - |
| 1777731497 | 30° C | 70% | 1018.6 hPa | 0 mm | - | 279 W/m² | - |
| 1777731196 | 30° C | 70% | 1018.5 hPa | 0 mm | - | 999 W/m² | - |
| 1777730893 | 30° C | 70% | 1018.6 hPa | 0 mm | - | 244 W/m² | - |
| 1777730590 | 30° C | 70% | 1018.7 hPa | 0 mm | - | 852 W/m² | - |
| 1777730286 | 30° C | 68% | 1018.8 hPa | 0 mm | - | 778 W/m² | - |
| 1777729983 | 30° C | 70% | 1018.5 hPa | 0 mm | - | 761 W/m² | - |
| 1777729679 | 30° C | 70% | 1018.5 hPa | 0 mm | - | 721 W/m² | - |
| 1777729376 | 30° C | 71% | 1018.7 hPa | 0 mm | - | 729 W/m² | - |
| 1777729072 | 29.44° C | 71% | 1018.5 hPa | 0 mm | - | 699 W/m² | - |
* Rain latest hour (hover to see other rain measurements)
** Current wind speed in m/s (hover to see current wind gust speed)